sensor_id;sensor_type;location;lat;lon;timestamp;pressure;altitude;pressure_sealevel;temperature;humidity
67397;BME280;57728;50.448;18.824;2022-09-09T00:02:27;97545.97;;;16.01;90.63
67397;BME280;57728;50.448;18.824;2022-09-09T00:04:35;97543.16;;;15.89;90.45
67397;BME280;57728;50.448;18.824;2022-09-09T00:07:03;97554.59;;;16.03;90.41
67397;BME280;57728;50.448;18.824;2022-09-09T00:09:21;97553.47;;;16.04;90.71
67397;BME280;57728;50.448;18.824;2022-09-09T00:11:51;97555.38;;;16.04;90.29
67397;BME280;57728;50.448;18.824;2022-09-09T00:14:01;97560.47;;;16.05;90.70
67397;BME280;57728;50.448;18.824;2022-09-09T00:16:19;97553.13;;;16.06;90.38
67397;BME280;57728;50.448;18.824;2022-09-09T00:18:45;97540.38;;;15.97;89.97
67397;BME280;57728;50.448;18.824;2022-09-09T00:21:12;97560.34;;;16.01;89.92
67397;BME280;57728;50.448;18.824;2022-09-09T00:23:27;97554.94;;;15.93;90.21
67397;BME280;57728;50.448;18.824;2022-09-09T00:25:39;97559.22;;;16.02;90.23
67397;BME280;57728;50.448;18.824;2022-09-09T00:27:47;97565.13;;;16.05;90.13
67397;BME280;57728;50.448;18.824;2022-09-09T00:29:58;97553.66;;;15.99;90.05
67397;BME280;57728;50.448;18.824;2022-09-09T00:32:20;97567.69;;;16.01;90.12
67397;BME280;57728;50.448;18.824;2022-09-09T00:34:25;97546.50;;;15.86;90.20
67397;BME280;57728;50.448;18.824;2022-09-09T00:36:32;97547.00;;;15.88;89.66
67397;BME280;57728;50.448;18.824;2022-09-09T00:38:42;97567.56;;;15.97;89.87
67397;BME280;57728;50.448;18.824;2022-09-09T00:43:23;97563.44;;;15.91;89.96
67397;BME280;57728;50.448;18.824;2022-09-09T00:45:46;97561.81;;;15.90;90.34
67397;BME280;57728;50.448;18.824;2022-09-09T00:48:08;97557.38;;;15.86;90.56
67397;BME280;57728;50.448;18.824;2022-09-09T00:50:42;97571.75;;;15.86;90.10
67397;BME280;57728;50.448;18.824;2022-09-09T00:58:22;97544.50;;;15.65;90.19
67397;BME280;57728;50.448;18.824;2022-09-09T01:05:51;97591.25;;;15.88;90.15
67397;BME280;57728;50.448;18.824;2022-09-09T01:08:08;97585.34;;;15.86;90.39
67397;BME280;57728;50.448;18.824;2022-09-09T01:10:52;97576.44;;;15.77;90.65
67397;BME280;57728;50.448;18.824;2022-09-09T01:13:04;97570.19;;;15.76;90.63
67397;BME280;57728;50.448;18.824;2022-09-09T01:15:29;97577.72;;;15.80;90.14
67397;BME280;57728;50.448;18.824;2022-09-09T01:20:25;97588.56;;;15.80;90.67
67397;BME280;57728;50.448;18.824;2022-09-09T01:28:21;97586.53;;;15.68;90.66
67397;BME280;57728;50.448;18.824;2022-09-09T01:30:28;97585.75;;;15.67;90.44
67397;BME280;57728;50.448;18.824;2022-09-09T01:32:41;97596.25;;;15.69;90.73
67397;BME280;57728;50.448;18.824;2022-09-09T01:34:47;97585.88;;;15.62;90.78
67397;BME280;57728;50.448;18.824;2022-09-09T01:36:58;97570.75;;;15.52;90.84
67397;BME280;57728;50.448;18.824;2022-09-09T01:39:06;97600.41;;;15.66;90.42
67397;BME280;57728;50.448;18.824;2022-09-09T01:41:09;97594.97;;;15.66;90.24
67397;BME280;57728;50.448;18.824;2022-09-09T01:43:20;97595.66;;;15.63;90.50
67397;BME280;57728;50.448;18.824;2022-09-09T01:45:24;97600.09;;;15.68;90.57
67397;BME280;57728;50.448;18.824;2022-09-09T01:47:27;97600.09;;;15.68;90.17
67397;BME280;57728;50.448;18.824;2022-09-09T01:49:36;97590.38;;;15.58;90.57
67397;BME280;57728;50.448;18.824;2022-09-09T01:51:50;97593.75;;;15.55;90.60
67397;BME280;57728;50.448;18.824;2022-09-09T01:54:00;97611.47;;;15.61;90.36
67397;BME280;57728;50.448;18.824;2022-09-09T01:56:14;97599.97;;;15.56;90.27
67397;BME280;57728;50.448;18.824;2022-09-09T01:58:43;97604.78;;;15.59;90.49
67397;BME280;57728;50.448;18.824;2022-09-09T02:03:52;97610.84;;;15.56;90.26
67397;BME280;57728;50.448;18.824;2022-09-09T02:08:20;97615.63;;;15.50;90.65
67397;BME280;57728;50.448;18.824;2022-09-09T02:10:56;97617.41;;;15.46;90.45
67397;BME280;57728;50.448;18.824;2022-09-09T02:13:18;97607.50;;;15.41;90.49
67397;BME280;57728;50.448;18.824;2022-09-09T02:17:38;97558.69;;;14.98;90.87
67397;BME280;57728;50.448;18.824;2022-09-09T02:19:57;97625.41;;;15.34;90.75
67397;BME280;57728;50.448;18.824;2022-09-09T02:22:19;97615.19;;;15.31;90.75
67397;BME280;57728;50.448;18.824;2022-09-09T02:24:29;97624.94;;;15.32;90.39
67397;BME280;57728;50.448;18.824;2022-09-09T02:26:49;97625.41;;;15.25;90.59
67397;BME280;57728;50.448;18.824;2022-09-09T02:28:57;97612.78;;;15.20;90.60
67397;BME280;57728;50.448;18.824;2022-09-09T02:31:02;97616.13;;;15.09;90.70
67397;BME280;57728;50.448;18.824;2022-09-09T02:33:13;97635.81;;;15.23;90.79
67397;BME280;57728;50.448;18.824;2022-09-09T02:35:24;97635.47;;;15.24;90.57
67397;BME280;57728;50.448;18.824;2022-09-09T02:37:34;97634.47;;;15.20;90.59
67397;BME280;57728;50.448;18.824;2022-09-09T02:39:39;97647.25;;;15.20;90.54
67397;BME280;57728;50.448;18.824;2022-09-09T02:41:44;97642.78;;;15.15;90.39
67397;BME280;57728;50.448;18.824;2022-09-09T02:43:45;97649.97;;;15.11;90.64
67397;BME280;57728;50.448;18.824;2022-09-09T02:46:27;97652.03;;;15.06;90.45
67397;BME280;57728;50.448;18.824;2022-09-09T02:49:01;97647.56;;;15.01;90.72
67397;BME280;57728;50.448;18.824;2022-09-09T02:51:38;97641.97;;;14.97;90.53
67397;BME280;57728;50.448;18.824;2022-09-09T02:54:07;97649.94;;;14.94;90.44
67397;BME280;57728;50.448;18.824;2022-09-09T02:56:24;97645.66;;;14.93;90.69
67397;BME280;57728;50.448;18.824;2022-09-09T02:58:30;97646.13;;;14.86;90.68
67397;BME280;57728;50.448;18.824;2022-09-09T03:00:38;97643.09;;;14.88;90.59
67397;BME280;57728;50.448;18.824;2022-09-09T03:02:42;97651.88;;;14.85;90.47
67397;BME280;57728;50.448;18.824;2022-09-09T03:04:43;97647.56;;;14.84;90.50
67397;BME280;57728;50.448;18.824;2022-09-09T03:06:45;97644.34;;;14.82;90.69
67397;BME280;57728;50.448;18.824;2022-09-09T03:08:54;97647.41;;;14.80;90.59
67397;BME280;57728;50.448;18.824;2022-09-09T03:10:59;97650.09;;;14.80;90.54
67397;BME280;57728;50.448;18.824;2022-09-09T03:13:07;97650.09;;;14.80;90.89
67397;BME280;57728;50.448;18.824;2022-09-09T03:15:13;97648.81;;;14.77;90.36
67397;BME280;57728;50.448;18.824;2022-09-09T03:17:16;97649.94;;;14.76;90.68
67397;BME280;57728;50.448;18.824;2022-09-09T03:19:24;97617.53;;;14.54;90.57
67397;BME280;57728;50.448;18.824;2022-09-09T03:21:26;97655.34;;;14.76;90.72
67397;BME280;57728;50.448;18.824;2022-09-09T03:23:29;97657.59;;;14.74;90.60
67397;BME280;57728;50.448;18.824;2022-09-09T03:25:31;97585.28;;;14.26;90.17
67397;BME280;57728;50.448;18.824;2022-09-09T03:27:34;97639.06;;;14.59;90.60
67397;BME280;57728;50.448;18.824;2022-09-09T03:29:36;97652.97;;;14.66;90.11
67397;BME280;57728;50.448;18.824;2022-09-09T03:31:41;97658.41;;;14.75;90.01
67397;BME280;57728;50.448;18.824;2022-09-09T03:33:44;97656.47;;;14.75;90.14
67397;BME280;57728;50.448;18.824;2022-09-09T03:35:48;97654.06;;;14.74;89.85
67397;BME280;57728;50.448;18.824;2022-09-09T03:37:51;97635.69;;;14.53;89.90
67397;BME280;57728;50.448;18.824;2022-09-09T03:39:55;97635.69;;;14.53;89.86
67397;BME280;57728;50.448;18.824;2022-09-09T03:41:57;97665.41;;;14.67;89.87
67397;BME280;57728;50.448;18.824;2022-09-09T03:43:58;97646.41;;;14.59;90.45
67397;BME280;57728;50.448;18.824;2022-09-09T03:46:02;97664.72;;;14.62;89.93
67397;BME280;57728;50.448;18.824;2022-09-09T03:48:04;97613.16;;;14.27;90.00
67397;BME280;57728;50.448;18.824;2022-09-09T03:50:08;97671.13;;;14.66;89.99
67397;BME280;57728;50.448;18.824;2022-09-09T03:52:15;97663.47;;;14.59;90.07
67397;BME280;57728;50.448;18.824;2022-09-09T03:54:16;97678.78;;;14.64;90.45
67397;BME280;57728;50.448;18.824;2022-09-09T03:56:17;97669.69;;;14.60;90.08
67397;BME280;57728;50.448;18.824;2022-09-09T03:58:19;97680.69;;;14.63;90.02
67397;BME280;57728;50.448;18.824;2022-09-09T04:00:20;97682.63;;;14.63;90.10
67397;BME280;57728;50.448;18.824;2022-09-09T04:02:26;97688.03;;;14.63;90.19
67397;BME280;57728;50.448;18.824;2022-09-09T04:04:28;97663.91;;;14.52;90.01
67397;BME280;57728;50.448;18.824;2022-09-09T04:06:29;97666.97;;;14.51;90.31
67397;BME280;57728;50.448;18.824;2022-09-09T04:08:31;97687.06;;;14.59;90.51
67397;BME280;57728;50.448;18.824;2022-09-09T04:10:35;97687.06;;;14.59;90.26
67397;BME280;57728;50.448;18.824;2022-09-09T04:12:39;97675.25;;;14.54;90.52
67397;BME280;57728;50.448;18.824;2022-09-09T04:14:41;97685.78;;;14.56;89.90
67397;BME280;57728;50.448;18.824;2022-09-09T04:16:43;97688.31;;;14.52;90.00
67397;BME280;57728;50.448;18.824;2022-09-09T04:18:45;97684.31;;;14.50;90.34
67397;BME280;57728;50.448;18.824;2022-09-09T04:20:50;97688.16;;;14.49;90.54
67397;BME280;57728;50.448;18.824;2022-09-09T04:22:56;97688.94;;;14.49;90.34
67397;BME280;57728;50.448;18.824;2022-09-09T04:24:58;97681.94;;;14.48;90.29
67397;BME280;57728;50.448;18.824;2022-09-09T04:26:59;97683.22;;;14.51;90.52
67397;BME280;57728;50.448;18.824;2022-09-09T04:29:01;97679.38;;;14.52;90.37
67397;BME280;57728;50.448;18.824;2022-09-09T04:31:05;97684.50;;;14.53;90.23
67397;BME280;57728;50.448;18.824;2022-09-09T04:33:09;97674.28;;;14.50;89.54
67397;BME280;57728;50.448;18.824;2022-09-09T04:35:12;97686.41;;;14.53;89.93
67397;BME280;57728;50.448;18.824;2022-09-09T04:37:13;97673.63;;;14.45;89.79
67397;BME280;57728;50.448;18.824;2022-09-09T04:39:15;97689.44;;;14.51;89.81
67397;BME280;57728;50.448;18.824;2022-09-09T04:41:17;97684.81;;;14.52;89.90
67397;BME280;57728;50.448;18.824;2022-09-09T04:43:20;97684.00;;;14.51;89.70
67397;BME280;57728;50.448;18.824;2022-09-09T04:45:23;97675.56;;;14.53;89.67
67397;BME280;57728;50.448;18.824;2022-09-09T04:47:25;97681.47;;;14.55;89.97
67397;BME280;57728;50.448;18.824;2022-09-09T04:49:28;97684.19;;;14.55;90.06
67397;BME280;57728;50.448;18.824;2022-09-09T04:51:29;97684.97;;;14.56;89.70
67397;BME280;57728;50.448;18.824;2022-09-09T04:53:33;97690.41;;;14.56;89.80
67397;BME280;57728;50.448;18.824;2022-09-09T04:55:38;97689.28;;;14.57;89.83
67397;BME280;57728;50.448;18.824;2022-09-09T04:57:40;97682.75;;;14.58;89.88
67397;BME280;57728;50.448;18.824;2022-09-09T04:59:49;97689.47;;;14.60;89.59
67397;BME280;57728;50.448;18.824;2022-09-09T05:01:50;97696.47;;;14.61;89.94
67397;BME280;57728;50.448;18.824;2022-09-09T05:03:54;97697.28;;;14.62;89.76
67397;BME280;57728;50.448;18.824;2022-09-09T05:06:05;97688.03;;;14.63;89.91
67397;BME280;57728;50.448;18.824;2022-09-09T05:08:10;97695.84;;;14.64;89.66
67397;BME280;57728;50.448;18.824;2022-09-09T05:10:11;97705.28;;;14.67;89.63
67397;BME280;57728;50.448;18.824;2022-09-09T05:12:17;97696.66;;;14.65;89.68
67397;BME280;57728;50.448;18.824;2022-09-09T05:14:25;97685.16;;;14.59;89.83
67397;BME280;57728;50.448;18.824;2022-09-09T05:16:27;97696.03;;;14.76;90.07
67397;BME280;57728;50.448;18.824;2022-09-09T05:18:30;97703.22;;;14.81;89.65
67397;BME280;57728;50.448;18.824;2022-09-09T05:20:31;97704.50;;;14.84;89.38
67397;BME280;57728;50.448;18.824;2022-09-09T05:22:33;97693.50;;;14.80;89.62
67397;BME280;57728;50.448;18.824;2022-09-09T05:24:35;97703.88;;;14.87;89.83
67397;BME280;57728;50.448;18.824;2022-09-09T05:26:38;97716.50;;;14.91;89.35
67397;BME280;57728;50.448;18.824;2022-09-09T05:28:39;97721.13;;;14.91;89.68
67397;BME280;57728;50.448;18.824;2022-09-09T05:30:41;97719.22;;;14.91;89.08
67397;BME280;57728;50.448;18.824;2022-09-09T05:32:43;97713.78;;;14.91;89.07
67397;BME280;57728;50.448;18.824;2022-09-09T05:34:46;97714.59;;;14.92;89.15
67397;BME280;57728;50.448;18.824;2022-09-09T05:36:48;97716.19;;;14.93;89.20
67397;BME280;57728;50.448;18.824;2022-09-09T05:38:50;97722.91;;;14.95;89.22
67397;BME280;57728;50.448;18.824;2022-09-09T05:40:56;97719.84;;;14.97;89.14
67397;BME280;57728;50.448;18.824;2022-09-09T05:43:01;97717.31;;;15.00;89.32
67397;BME280;57728;50.448;18.824;2022-09-09T05:45:02;97719.69;;;15.02;88.53
67397;BME280;57728;50.448;18.824;2022-09-09T05:47:04;97715.38;;;15.01;88.32
67397;BME280;57728;50.448;18.824;2022-09-09T05:49:06;97704.53;;;15.01;89.20
67397;BME280;57728;50.448;18.824;2022-09-09T05:51:12;97705.34;;;15.01;88.58
67397;BME280;57728;50.448;18.824;2022-09-09T05:53:19;97679.47;;;14.87;88.14
67397;BME280;57728;50.448;18.824;2022-09-09T05:55:21;97705.84;;;15.03;87.80
67397;BME280;57728;50.448;18.824;2022-09-09T05:57:22;97728.84;;;15.15;87.59
67397;BME280;57728;50.448;18.824;2022-09-09T05:59:24;97732.69;;;15.22;88.11
67397;BME280;57728;50.448;18.824;2022-09-09T06:01:33;97730.97;;;15.26;87.92
67397;BME280;57728;50.448;18.824;2022-09-09T06:03:38;97730.28;;;15.30;87.75
67397;BME280;57728;50.448;18.824;2022-09-09T06:05:41;97716.09;;;15.24;87.64
67397;BME280;57728;50.448;18.824;2022-09-09T06:07:44;97724.22;;;15.33;87.53
67397;BME280;57728;50.448;18.824;2022-09-09T06:09:45;97723.44;;;15.32;86.90
67397;BME280;57728;50.448;18.824;2022-09-09T06:11:47;97728.25;;;15.35;86.95
67397;BME280;57728;50.448;18.824;2022-09-09T06:13:50;97709.72;;;15.28;86.94
67397;BME280;57728;50.448;18.824;2022-09-09T06:15:55;97697.22;;;15.19;86.66
67397;BME280;57728;50.448;18.824;2022-09-09T06:17:56;97729.81;;;15.45;87.13
67397;BME280;57728;50.448;18.824;2022-09-09T06:19:59;97694.69;;;15.22;87.34
67397;BME280;57728;50.448;18.824;2022-09-09T06:22:00;97704.13;;;15.34;86.67
67397;BME280;57728;50.448;18.824;2022-09-09T06:24:07;97735.41;;;15.57;87.00
67397;BME280;57728;50.448;18.824;2022-09-09T06:26:22;97732.41;;;15.59;86.49
67397;BME280;57728;50.448;18.824;2022-09-09T06:28:26;97729.34;;;15.60;85.72
67397;BME280;57728;50.448;18.824;2022-09-09T06:30:27;97726.63;;;15.60;85.95
67397;BME280;57728;50.448;18.824;2022-09-09T06:32:29;97717.03;;;15.54;85.65
67397;BME280;57728;50.448;18.824;2022-09-09T06:34:30;97735.91;;;15.68;86.47
67397;BME280;57728;50.448;18.824;2022-09-09T06:36:36;97729.50;;;15.72;86.39
67397;BME280;57728;50.448;18.824;2022-09-09T06:38:41;97735.88;;;15.76;85.38
67397;BME280;57728;50.448;18.824;2022-09-09T06:40:56;97728.38;;;15.73;84.67
67397;BME280;57728;50.448;18.824;2022-09-09T06:42:59;97733.31;;;15.89;86.13
67397;BME280;57728;50.448;18.824;2022-09-09T06:45:14;97734.09;;;15.98;85.56
67397;BME280;57728;50.448;18.824;2022-09-09T06:47:23;97738.25;;;16.04;84.91
67397;BME280;57728;50.448;18.824;2022-09-09T06:49:25;97735.69;;;16.08;84.12
67397;BME280;57728;50.448;18.824;2022-09-09T06:51:34;97733.91;;;16.12;84.02
67397;BME280;57728;50.448;18.824;2022-09-09T06:53:39;97740.44;;;16.19;84.46
67397;BME280;57728;50.448;18.824;2022-09-09T06:55:42;97741.09;;;16.25;83.51
67397;BME280;57728;50.448;18.824;2022-09-09T06:57:47;97735.31;;;16.26;82.96
67397;BME280;57728;50.448;18.824;2022-09-09T06:59:56;97732.44;;;16.32;82.68
67397;BME280;57728;50.448;18.824;2022-09-09T07:01:58;97728.59;;;16.33;82.68
67397;BME280;57728;50.448;18.824;2022-09-09T07:04:01;97706.84;;;16.33;83.03
67397;BME280;57728;50.448;18.824;2022-09-09T07:06:13;97725.50;;;16.52;83.25
67397;BME280;57728;50.448;18.824;2022-09-09T07:08:19;97721.16;;;16.59;82.95
67397;BME280;57728;50.448;18.824;2022-09-09T07:10:22;97730.84;;;16.69;82.28
67397;BME280;57728;50.448;18.824;2022-09-09T07:12:23;97723.97;;;16.71;81.93
67397;BME280;57728;50.448;18.824;2022-09-09T07:14:30;97728.72;;;16.74;80.69
67397;BME280;57728;50.448;18.824;2022-09-09T07:16:36;97730.34;;;16.75;80.99
67397;BME280;57728;50.448;18.824;2022-09-09T07:18:41;97709.88;;;16.69;81.48
67397;BME280;57728;50.448;18.824;2022-09-09T07:20:42;97704.06;;;16.80;82.02
67397;BME280;57728;50.448;18.824;2022-09-09T07:22:45;97715.50;;;16.94;80.97
67397;BME280;57728;50.448;18.824;2022-09-09T07:24:47;97725.81;;;17.09;81.11
67397;BME280;57728;50.448;18.824;2022-09-09T07:26:51;97728.81;;;17.16;81.20
67397;BME280;57728;50.448;18.824;2022-09-09T07:28:54;97688.91;;;16.99;80.28
67397;BME280;57728;50.448;18.824;2022-09-09T07:31:02;97724.94;;;17.26;80.01
67397;BME280;57728;50.448;18.824;2022-09-09T07:33:06;97724.13;;;17.26;79.20
67397;BME280;57728;50.448;18.824;2022-09-09T07:35:08;97725.06;;;17.30;79.68
67397;BME280;57728;50.448;18.824;2022-09-09T07:37:09;97725.34;;;17.37;79.12
67397;BME280;57728;50.448;18.824;2022-09-09T07:39:14;97713.88;;;17.43;78.98
67397;BME280;57728;50.448;18.824;2022-09-09T07:41:24;97718.94;;;17.54;80.07
67397;BME280;57728;50.448;18.824;2022-09-09T07:43:29;97724.97;;;17.59;78.44
67397;BME280;57728;50.448;18.824;2022-09-09T07:45:34;97733.69;;;17.73;78.60
67397;BME280;57728;50.448;18.824;2022-09-09T07:47:37;97719.13;;;17.69;78.46
67397;BME280;57728;50.448;18.824;2022-09-09T07:49:41;97740.31;;;17.85;77.57
67397;BME280;57728;50.448;18.824;2022-09-09T07:51:45;97733.72;;;17.86;77.58
67397;BME280;57728;50.448;18.824;2022-09-09T07:53:55;97735.31;;;17.87;77.27
67397;BME280;57728;50.448;18.824;2022-09-09T07:56:04;97742.28;;;17.96;77.70
67397;BME280;57728;50.448;18.824;2022-09-09T07:58:08;97750.03;;;18.07;77.75
67397;BME280;57728;50.448;18.824;2022-09-09T08:00:13;97744.50;;;18.15;78.29
67397;BME280;57728;50.448;18.824;2022-09-09T08:02:19;97748.41;;;18.27;76.39
67397;BME280;57728;50.448;18.824;2022-09-09T08:04:21;97753.47;;;18.49;77.32
67397;BME280;57728;50.448;18.824;2022-09-09T08:06:27;97745.53;;;18.56;75.82
67397;BME280;57728;50.448;18.824;2022-09-09T08:08:30;97696.59;;;18.39;75.48
67397;BME280;57728;50.448;18.824;2022-09-09T08:10:31;97694.69;;;18.52;75.02
67397;BME280;57728;50.448;18.824;2022-09-09T08:12:34;97734.59;;;18.93;75.04
67397;BME280;57728;50.448;18.824;2022-09-09T08:14:35;97754.41;;;19.14;73.43
67397;BME280;57728;50.448;18.824;2022-09-09T08:16:42;97734.84;;;19.12;73.31
67397;BME280;57728;50.448;18.824;2022-09-09T08:18:49;97761.41;;;19.40;72.58
67397;BME280;57728;50.448;18.824;2022-09-09T08:20:52;97744.69;;;19.41;72.67
67397;BME280;57728;50.448;18.824;2022-09-09T08:22:55;97745.88;;;19.56;72.51
67397;BME280;57728;50.448;18.824;2022-09-09T08:24:57;97746.19;;;19.67;71.51
67397;BME280;57728;50.448;18.824;2022-09-09T08:26:59;97759.16;;;19.82;70.90
67397;BME280;57728;50.448;18.824;2022-09-09T08:29:03;97769.25;;;19.94;70.48
67397;BME280;57728;50.448;18.824;2022-09-09T08:31:21;97761.31;;;20.05;70.51
67397;BME280;57728;50.448;18.824;2022-09-09T08:33:22;97730.97;;;19.94;69.91
67397;BME280;57728;50.448;18.824;2022-09-09T08:35:23;97745.22;;;20.15;70.33
67397;BME280;57728;50.448;18.824;2022-09-09T08:37:26;97748.75;;;20.32;69.26
67397;BME280;57728;50.448;18.824;2022-09-09T08:39:29;97760.88;;;20.47;69.63
67397;BME280;57728;50.448;18.824;2022-09-09T08:44:43;97756.34;;;20.66;69.67
67397;BME280;57728;50.448;18.824;2022-09-09T08:49:18;97724.53;;;20.78;68.39
67397;BME280;57728;50.448;18.824;2022-09-09T08:51:45;97749.66;;;21.15;67.34
67397;BME280;57728;50.448;18.824;2022-09-09T08:53:50;97738.13;;;21.25;65.83
67397;BME280;57728;50.448;18.824;2022-09-09T08:56:09;97773.34;;;21.58;65.34
67397;BME280;57728;50.448;18.824;2022-09-09T08:58:26;97769.38;;;21.75;65.49
67397;BME280;57728;50.448;18.824;2022-09-09T09:05:58;97767.41;;;21.56;65.17
67397;BME280;57728;50.448;18.824;2022-09-09T09:08:31;97703.78;;;21.12;65.35
67397;BME280;57728;50.448;18.824;2022-09-09T09:10:50;97770.81;;;21.34;65.81
67397;BME280;57728;50.448;18.824;2022-09-09T09:12:59;97779.00;;;21.14;64.89
67397;BME280;57728;50.448;18.824;2022-09-09T09:15:14;97744.91;;;20.80;65.92
67397;BME280;57728;50.448;18.824;2022-09-09T09:17:24;97780.31;;;20.89;66.42
67397;BME280;57728;50.448;18.824;2022-09-09T09:19:30;97772.06;;;20.85;65.57
67397;BME280;57728;50.448;18.824;2022-09-09T09:21:45;97748.63;;;20.72;65.99
67397;BME280;57728;50.448;18.824;2022-09-09T09:23:58;97769.94;;;20.79;65.69
67397;BME280;57728;50.448;18.824;2022-09-09T09:26:07;97729.91;;;20.42;64.76
67397;BME280;57728;50.448;18.824;2022-09-09T09:28:16;97742.25;;;20.52;65.69
67397;BME280;57728;50.448;18.824;2022-09-09T09:30:37;97770.81;;;20.83;66.40
67397;BME280;57728;50.448;18.824;2022-09-09T09:33:18;97766.03;;;20.96;64.44
67397;BME280;57728;50.448;18.824;2022-09-09T09:35:37;97770.53;;;21.04;64.35
67397;BME280;57728;50.448;18.824;2022-09-09T09:37:41;97768.31;;;21.09;64.28
67397;BME280;57728;50.448;18.824;2022-09-09T09:39:45;97761.50;;;21.03;62.62
67397;BME280;57728;50.448;18.824;2022-09-09T09:41:47;97763.63;;;21.10;61.44
67397;BME280;57728;50.448;18.824;2022-09-09T09:43:54;97709.69;;;20.79;62.20
67397;BME280;57728;50.448;18.824;2022-09-09T09:45:56;97763.16;;;21.24;62.86
67397;BME280;57728;50.448;18.824;2022-09-09T09:48:05;97685.31;;;21.09;63.87
67397;BME280;57728;50.448;18.824;2022-09-09T09:50:19;97765.63;;;21.83;62.62
67397;BME280;57728;50.448;18.824;2022-09-09T09:52:26;97772.91;;;21.95;61.48
67397;BME280;57728;50.448;18.824;2022-09-09T09:54:38;97759.28;;;21.79;62.53
67397;BME280;57728;50.448;18.824;2022-09-09T09:56:44;97774.00;;;21.90;63.21
67397;BME280;57728;50.448;18.824;2022-09-09T09:58:51;97767.22;;;22.04;64.07
67397;BME280;57728;50.448;18.824;2022-09-09T10:01:00;97753.88;;;22.02;63.80
67397;BME280;57728;50.448;18.824;2022-09-09T10:03:22;97768.94;;;22.31;65.56
67397;BME280;57728;50.448;18.824;2022-09-09T10:05:31;97779.41;;;23.18;66.16
67397;BME280;57728;50.448;18.824;2022-09-09T10:07:41;97767.09;;;23.61;59.98
67397;BME280;57728;50.448;18.824;2022-09-09T10:09:53;97772.78;;;23.75;57.36
67397;BME280;57728;50.448;18.824;2022-09-09T10:22:26;97778.09;;;25.65;44.95
67397;BME280;57728;50.448;18.824;2022-09-09T10:27:19;97780.38;;;26.79;41.67
67397;BME280;57728;50.448;18.824;2022-09-09T10:36:47;97780.81;;;26.99;39.50
67397;BME280;57728;50.448;18.824;2022-09-09T10:39:01;97784.75;;;27.41;38.90
67397;BME280;57728;50.448;18.824;2022-09-09T10:42:24;97787.50;;;27.48;38.50
67397;BME280;57728;50.448;18.824;2022-09-09T10:52:15;97793.88;;;27.06;37.84
67397;BME280;57728;50.448;18.824;2022-09-09T10:54:29;97792.66;;;27.14;37.60
67397;BME280;57728;50.448;18.824;2022-09-09T10:57:04;97782.38;;;27.50;36.43
67397;BME280;57728;50.448;18.824;2022-09-09T10:59:17;97764.78;;;27.96;35.55
67397;BME280;57728;50.448;18.824;2022-09-09T11:01:38;97787.09;;;28.52;34.80
67397;BME280;57728;50.448;18.824;2022-09-09T11:03:53;97794.09;;;28.74;33.47
67397;BME280;57728;50.448;18.824;2022-09-09T11:06:15;97793.13;;;28.98;33.49
67397;BME280;57728;50.448;18.824;2022-09-09T11:08:29;97788.47;;;29.71;32.58
67397;BME280;57728;50.448;18.824;2022-09-09T11:11:09;97799.72;;;30.56;31.37
67397;BME280;57728;50.448;18.824;2022-09-09T11:15:46;97794.13;;;31.10;29.77
67397;BME280;57728;50.448;18.824;2022-09-09T11:17:56;97776.06;;;31.41;29.71
67397;BME280;57728;50.448;18.824;2022-09-09T11:20:05;97781.63;;;31.85;28.44
67397;BME280;57728;50.448;18.824;2022-09-09T11:25:14;97794.47;;;30.88;28.75
67397;BME280;57728;50.448;18.824;2022-09-09T11:30:22;97790.31;;;29.47;31.16
67397;BME280;57728;50.448;18.824;2022-09-09T11:37:55;97795.91;;;28.32;30.46
67397;BME280;57728;50.448;18.824;2022-09-09T11:40:26;97791.00;;;27.73;31.72
67397;BME280;57728;50.448;18.824;2022-09-09T11:42:29;97789.88;;;27.32;32.48
67397;BME280;57728;50.448;18.824;2022-09-09T11:44:31;97789.09;;;26.81;34.14
67397;BME280;57728;50.448;18.824;2022-09-09T11:46:36;97787.03;;;26.32;35.55
67397;BME280;57728;50.448;18.824;2022-09-09T11:48:42;97777.34;;;25.72;35.66
67397;BME280;57728;50.448;18.824;2022-09-09T11:51:07;97781.84;;;25.36;36.63
67397;BME280;57728;50.448;18.824;2022-09-09T11:53:21;97780.50;;;25.15;37.61
67397;BME280;57728;50.448;18.824;2022-09-09T11:55:34;97785.66;;;25.17;38.01
67397;BME280;57728;50.448;18.824;2022-09-09T11:57:39;97786.28;;;25.54;37.09
67397;BME280;57728;50.448;18.824;2022-09-09T11:59:50;97786.84;;;25.85;37.03
67397;BME280;57728;50.448;18.824;2022-09-09T12:02:18;97785.34;;;26.02;35.36
67397;BME280;57728;50.448;18.824;2022-09-09T12:04:29;97789.75;;;26.21;35.50
67397;BME280;57728;50.448;18.824;2022-09-09T12:09:06;97783.81;;;26.19;35.41
67397;BME280;57728;50.448;18.824;2022-09-09T12:11:26;97782.19;;;26.07;35.65
67397;BME280;57728;50.448;18.824;2022-09-09T12:13:29;97777.78;;;25.85;35.28
67397;BME280;57728;50.448;18.824;2022-09-09T12:15:32;97781.66;;;25.69;35.41
67397;BME280;57728;50.448;18.824;2022-09-09T12:17:49;97779.44;;;26.00;35.16
67397;BME280;57728;50.448;18.824;2022-09-09T12:20:50;97778.00;;;26.56;34.59
67397;BME280;57728;50.448;18.824;2022-09-09T12:22:54;97777.63;;;26.61;32.92
67397;BME280;57728;50.448;18.824;2022-09-09T12:25:16;97775.66;;;26.69;33.41
67397;BME280;57728;50.448;18.824;2022-09-09T12:27:31;97772.53;;;26.88;32.81
67397;BME280;57728;50.448;18.824;2022-09-09T12:30:10;97778.00;;;27.38;31.39
67397;BME280;57728;50.448;18.824;2022-09-09T12:32:20;97782.72;;;27.66;31.39
67397;BME280;57728;50.448;18.824;2022-09-09T12:34:36;97783.09;;;27.72;32.26
67397;BME280;57728;50.448;18.824;2022-09-09T12:36:54;97775.84;;;28.03;31.32
67397;BME280;57728;50.448;18.824;2022-09-09T12:39:15;97779.28;;;28.29;31.46
67397;BME280;57728;50.448;18.824;2022-09-09T12:41:25;97777.97;;;28.51;30.90